Time;durP1;ratioP1;P1;durP2;ratioP2;P2;SDS_P1;SDS_P2;PMS_P1;PMS_P2;Temp;Humidity;BMP_temperature;BMP_pressure;BME280_temperature;BME280_humidity;BME280_pressure;Samples;Min_cycle;Max_cycle;Signal;HPM_P1;HPM_P2
2021/04/01 00:00:37;;;;;;;38.47;16.98;;;;;;;13.91;60.86;101152.53;4924916;29;20401;-73
2021/04/01 00:03:23;;;;;;;41.30;16.60;;;;;;;13.74;60.92;101133.31;4947121;28;20038;-73
2021/04/01 00:05:48;;;;;;;38.53;16.73;;;;;;;13.80;60.36;101135.31;4924847;29;20476;-73
2021/04/01 00:08:14;;;;;;;35.55;16.20;;;;;;;13.68;60.86;101132.84;4918685;29;20048;-73
2021/04/01 00:10:42;;;;;;;36.78;16.40;;;;;;;13.70;61.83;101130.56;4927227;29;20468;-73
2021/04/01 00:13:09;;;;;;;39.25;16.85;;;;;;;13.82;61.68;101127.63;4922861;29;20063;-73
2021/04/01 00:15:36;;;;;;;33.47;16.27;;;;;;;13.75;62.45;101129.44;4924198;29;20036;-73
2021/04/01 00:18:02;;;;;;;35.35;16.75;;;;;;;13.74;64.52;101141.44;4922437;29;20468;-73
2021/04/01 00:20:27;;;;;;;35.75;16.90;;;;;;;13.73;63.65;101134.44;4921691;29;20040;-73
2021/04/01 00:22:53;;;;;;;37.25;17.17;;;;;;;13.77;62.37;101129.88;4927772;29;20413;-73
2021/04/01 00:25:19;;;;;;;37.95;17.45;;;;;;;13.92;62.23;101127.00;4918325;29;20431;-73
2021/04/01 00:27:45;;;;;;;37.53;16.85;;;;;;;13.99;61.69;101131.75;4922456;29;20032;-73
2021/04/01 00:30:12;;;;;;;38.00;15.93;;;;;;;13.74;65.29;101136.81;4930322;29;20059;-73
2021/04/01 00:32:38;;;;;;;38.38;16.20;;;;;;;13.65;64.32;101122.72;4931119;29;20035;-73
2021/04/01 00:35:05;;;;;;;34.65;16.20;;;;;;;13.50;63.95;101118.25;4922954;29;20119;-73
2021/04/01 00:37:31;;;;;;;36.95;16.73;;;;;;;13.68;64.04;101121.22;4929943;29;20082;-72
2021/04/01 00:39:57;;;;;;;40.03;17.33;;;;;;;13.77;62.67;101119.81;4926707;29;20094;-73
2021/04/01 00:42:23;;;;;;;36.65;17.77;;;;;;;13.76;60.97;101117.50;4944047;28;20073;-73
2021/04/01 00:44:49;;;;;;;37.95;17.77;;;;;;;13.56;63.11;101119.50;4950146;28;20039;-73
2021/04/01 00:47:14;;;;;;;39.30;17.95;;;;;;;13.74;63.11;101109.72;4952675;28;20061;-72
2021/04/01 00:49:40;;;;;;;36.83;17.08;;;;;;;13.76;63.96;101123.69;4952887;28;20042;-73
2021/04/01 00:52:07;;;;;;;34.55;17.00;;;;;;;13.73;63.86;101123.63;4950439;29;20035;-72
2021/04/01 00:54:33;;;;;;;36.72;17.15;;;;;;;13.64;64.51;101126.59;4951361;28;20407;-73
2021/04/01 00:56:59;;;;;;;34.38;16.38;;;;;;;13.61;65.81;101127.31;4943089;28;20042;-72
2021/04/01 00:59:27;;;;;;;34.05;16.67;;;;;;;13.76;66.58;101123.69;4951335;28;20031;-73
2021/04/01 01:01:59;;;;;;;34.50;15.90;;;;;;;13.62;65.43;101126.16;4951761;28;20035;-73
2021/04/01 01:04:25;;;;;;;32.95;16.23;;;;;;;13.46;67.35;101117.41;4951424;28;20098;-73
2021/04/01 01:06:50;;;;;;;40.00;16.75;;;;;;;13.56;67.28;101114.09;4954960;28;20041;-73
2021/04/01 01:09:16;;;;;;;38.90;17.00;;;;;;;13.42;66.49;101111.16;4951705;28;20038;-73
2021/04/01 01:11:41;;;;;;;37.00;16.85;;;;;;;13.56;66.12;101111.38;4942842;28;20043;-72
2021/04/01 01:14:08;;;;;;;34.45;16.90;;;;;;;13.50;66.73;101100.09;4953887;28;20042;-74
2021/04/01 01:16:35;;;;;;;35.80;16.35;;;;;;;13.47;67.42;101100.78;4962804;28;20045;-72
2021/04/01 01:19:02;;;;;;;38.95;16.83;;;;;;;13.63;68.23;101091.78;4963828;28;20039;-72
2021/04/01 01:21:28;;;;;;;34.33;17.23;;;;;;;13.68;68.34;101097.66;4940341;28;20037;-73
2021/04/01 01:23:54;;;;;;;31.85;15.98;;;;;;;13.84;67.26;101100.22;4939172;28;20034;-72
2021/04/01 01:26:20;;;;;;;31.63;15.50;;;;;;;13.73;68.09;101102.75;4951741;28;20035;-73
2021/04/01 01:28:46;;;;;;;32.75;15.90;;;;;;;13.73;69.78;101108.16;4931933;29;20044;-72
2021/04/01 01:31:14;;;;;;;32.92;15.45;;;;;;;13.70;71.98;101111.59;4940084;28;20066;-73
2021/04/01 01:36:21;;;;;;;31.88;16.05;;;;;;;13.78;69.04;101105.13;4951413;28;20070;-73
2021/04/01 01:38:47;;;;;;;35.92;16.13;;;;;;;13.80;70.50;101104.78;4946524;28;20070;-73
2021/04/01 01:41:12;;;;;;;31.45;16.25;;;;;;;13.81;69.88;101104.41;4948978;29;20035;-73
2021/04/01 01:43:38;;;;;;;32.65;15.93;;;;;;;13.72;69.95;101093.06;4949290;29;20035;-73
2021/04/01 01:46:04;;;;;;;32.60;15.57;;;;;;;13.57;69.91;101097.47;4954125;28;20035;-73
2021/04/01 01:48:29;;;;;;;35.40;17.40;;;;;;;13.66;67.39;101089.13;4949314;29;20078;-73
2021/04/01 01:50:55;;;;;;;35.50;17.38;;;;;;;13.76;66.67;101096.63;4954201;29;20050;-73
2021/04/01 01:53:21;;;;;;;38.25;17.60;;;;;;;13.78;69.39;101086.19;4948109;29;20178;-73
2021/04/01 01:55:47;;;;;;;39.85;17.95;;;;;;;13.77;66.82;101087.34;4922842;29;20126;-73
2021/04/01 01:58:12;;;;;;;33.33;16.38;;;;;;;13.71;68.48;101091.50;4948040;29;20031;-72
2021/04/01 02:00:45;;;;;;;34.40;16.23;;;;;;;13.89;67.52;101089.03;4953374;28;20042;-73
2021/04/01 02:03:12;;;;;;;37.97;17.85;;;;;;;13.85;69.08;101088.22;4952249;29;20059;-72
2021/04/01 02:05:39;;;;;;;34.97;17.08;;;;;;;13.73;68.65;101085.72;4931737;29;20039;-73
2021/04/01 02:08:06;;;;;;;37.65;17.52;;;;;;;13.76;69.96;101079.59;4953679;29;20515;-73
2021/04/01 02:10:34;;;;;;;40.95;17.60;;;;;;;13.74;68.44;101081.88;4944596;29;20047;-73
2021/04/01 02:13:01;;;;;;;35.17;17.38;;;;;;;13.71;67.87;101077.97;4954875;29;20031;-73
2021/04/01 02:15:28;;;;;;;34.78;17.60;;;;;;;13.70;68.17;101075.63;4949114;29;20035;-73
2021/04/01 02:18:04;;;;;;;38.13;17.27;;;;;;;13.68;68.48;101080.63;4939445;29;20081;-73
2021/04/01 02:20:30;;;;;;;39.25;17.65;;;;;;;13.52;69.32;101075.38;4952400;28;20553;-73
2021/04/01 02:22:56;;;;;;;37.80;17.13;;;;;;;13.56;69.57;101082.41;4947561;29;20028;-73
2021/04/01 02:25:21;;;;;;;38.60;17.40;;;;;;;13.57;69.17;101085.88;4955058;28;20122;-73
2021/04/01 02:27:47;;;;;;;37.55;17.73;;;;;;;13.58;70.01;101085.53;4936400;29;20033;-73
2021/04/01 02:30:13;;;;;;;34.78;16.60;;;;;;;13.70;69.85;101089.94;4954711;29;20059;-73
2021/04/01 02:32:39;;;;;;;42.60;18.48;;;;;;;13.65;70.51;101095.66;4947185;29;20110;-73
2021/04/01 02:35:05;;;;;;;36.58;17.42;;;;;;;13.86;71.16;101108.75;4953975;28;20207;-73
2021/04/01 02:37:30;;;;;;;42.42;18.08;;;;;;;13.74;72.89;101104.31;4954081;29;20038;-73
2021/04/01 02:39:56;;;;;;;38.97;18.50;;;;;;;13.82;71.57;101114.09;4953171;29;20110;-73
2021/04/01 02:42:21;;;;;;;50.60;19.88;;;;;;;14.27;68.45;101115.88;4947644;29;20072;-73
2021/04/01 02:44:46;;;;;;;43.92;19.73;;;;;;;14.46;66.20;101104.91;4953097;28;20046;-73
2021/04/01 02:47:12;;;;;;;47.35;21.33;;;;;;;14.34;66.12;101099.75;4948157;28;20112;-73
2021/04/01 02:49:38;;;;;;;43.20;20.38;;;;;;;14.51;66.57;101098.38;4935583;29;20039;-73
2021/04/01 02:52:03;;;;;;;44.47;21.25;;;;;;;14.48;66.97;101089.06;4954003;29;20039;-72
2021/04/01 02:54:29;;;;;;;45.50;20.17;;;;;;;14.32;66.43;101075.69;4944705;29;20027;-73
2021/04/01 02:56:54;;;;;;;49.92;22.63;;;;;;;14.15;65.05;101078.94;4933803;28;20043;-73
2021/04/01 02:59:20;;;;;;;48.72;22.17;;;;;;;14.24;66.19;101078.69;4951752;28;20036;-73
2021/04/01 03:01:45;;;;;;;48.25;21.30;;;;;;;14.44;66.46;101093.66;4944130;29;20473;-73
2021/04/01 03:04:11;;;;;;;45.60;21.42;;;;;;;14.19;66.15;101074.34;4951508;28;20738;-73
2021/04/01 03:06:36;;;;;;;49.25;22.20;;;;;;;14.05;66.42;101070.72;4932344;29;20047;-73
2021/04/01 03:09:03;;;;;;;50.17;21.77;;;;;;;14.22;66.33;101065.50;4951722;29;20074;-73
2021/04/01 03:11:28;;;;;;;46.72;21.30;;;;;;;14.04;67.98;101069.91;4952753;29;20042;-73
2021/04/01 03:13:54;;;;;;;47.05;21.60;;;;;;;14.13;69.64;101066.94;4953141;28;20031;-73
2021/04/01 03:16:19;;;;;;;44.88;20.95;;;;;;;14.02;68.18;101069.50;4953839;29;20122;-72
2021/04/01 03:18:45;;;;;;;49.10;21.08;;;;;;;14.00;69.04;101069.09;4948269;29;20039;-72
2021/04/01 03:21:10;;;;;;;51.50;23.30;;;;;;;13.98;69.48;101060.56;4947518;28;20786;-73
2021/04/01 03:23:35;;;;;;;47.83;22.27;;;;;;;13.90;68.91;101068.97;4948538;28;20562;-73
2021/04/01 03:26:01;;;;;;;51.47;21.02;;;;;;;13.97;68.96;101069.84;4951110;28;20031;-73
2021/04/01 03:28:27;;;;;;;48.95;22.80;;;;;;;13.97;70.58;101074.47;4932898;29;20035;-72
2021/04/01 03:31:10;;;;;;;46.28;22.58;;;;;;;14.30;68.60;101072.59;4951260;29;20042;-73
2021/04/01 03:33:35;;;;;;;56.92;23.77;;;;;;;14.18;68.98;101085.56;4942490;28;20031;-73
2021/04/01 03:36:01;;;;;;;56.20;24.55;;;;;;;14.33;68.82;101085.41;4948365;28;20457;-73
2021/04/01 03:38:27;;;;;;;53.28;24.15;;;;;;;14.52;67.79;101079.03;4935134;28;20023;-73
2021/04/01 03:40:54;;;;;;;52.67;24.25;;;;;;;14.63;66.94;101073.75;4950194;28;20043;-73
2021/04/01 03:43:22;;;;;;;56.33;23.48;;;;;;;14.81;65.05;101080.09;4936051;28;20035;-73
2021/04/01 03:45:47;;;;;;;53.05;23.38;;;;;;;14.85;64.92;101051.09;4955346;28;20388;-73
2021/04/01 03:48:13;;;;;;;51.83;23.40;;;;;;;14.51;65.10;101044.16;4949770;28;20031;-73
2021/04/01 03:50:39;;;;;;;51.92;23.55;;;;;;;14.27;67.38;101045.41;4952653;29;20126;-73
2021/04/01 03:53:05;;;;;;;51.78;22.63;;;;;;;14.44;66.65;101048.38;4953335;29;20531;-73
2021/04/01 03:57:59;;;;;;;55.00;25.98;;;;;;;14.64;68.97;101057.09;4947919;29;20031;-73
2021/04/01 04:00:31;;;;;;;50.03;24.65;;;;;;;14.77;68.54;101063.81;4951111;29;20063;-73
2021/04/01 04:03:06;;;;;;;56.25;25.67;;;;;;;14.79;68.26;101063.44;4951642;29;20204;-73
2021/04/01 04:05:42;;;;;;;55.42;25.92;;;;;;;14.44;68.66;101050.28;4929140;29;20046;-73
2021/04/01 04:08:36;;;;;;;56.92;25.38;;;;;;;14.27;69.98;101048.13;4942293;29;20038;-72
2021/04/01 04:11:28;;;;;;;55.88;25.13;;;;;;;14.19;70.75;101041.06;4945334;28;20094;-73
2021/04/01 04:16:16;;;;;;;61.20;26.25;;;;;;;14.61;69.40;101059.78;4952558;28;20455;-73
2021/04/01 04:18:42;;;;;;;61.78;27.08;;;;;;;14.66;68.06;101064.84;4950586;29;20031;-73
2021/04/01 04:21:08;;;;;;;57.97;27.63;;;;;;;14.86;65.64;101055.38;4951995;29;20431;-73
2021/04/01 04:23:35;;;;;;;60.55;27.50;;;;;;;14.69;66.03;101064.13;4946695;29;20542;-73
2021/04/01 04:26:01;;;;;;;60.05;27.52;;;;;;;14.71;65.52;101065.28;4945816;28;20031;-73
2021/04/01 04:30:52;;;;;;;61.15;27.23;;;;;;;14.23;67.55;101047.31;4943775;28;20035;-76
2021/04/01 04:33:17;;;;;;;64.50;28.35;;;;;;;14.25;67.30;101051.22;4922979;28;20035;-74
2021/04/01 04:35:42;;;;;;;60.95;28.05;;;;;;;14.46;65.97;101051.47;4943499;28;20035;-74
2021/04/01 04:38:08;;;;;;;64.30;29.60;;;;;;;14.56;64.94;101062.81;4921084;28;20122;-74
2021/04/01 04:40:34;;;;;;;61.00;28.50;;;;;;;14.59;64.28;101067.50;4936627;28;20508;-74
2021/04/01 04:42:59;;;;;;;64.00;29.55;;;;;;;14.51;64.19;101055.81;4940902;28;20032;-74
2021/04/01 04:45:25;;;;;;;62.10;28.10;;;;;;;14.56;63.71;101057.38;4943464;28;20031;-74
2021/04/01 04:47:50;;;;;;;60.63;28.80;;;;;;;14.05;67.20;101052.50;4934589;28;20396;-74
2021/04/01 04:50:16;;;;;;;61.10;28.98;;;;;;;14.31;65.85;101055.19;4936607;28;20099;-74
2021/04/01 04:52:42;;;;;;;62.75;29.80;;;;;;;14.36;64.38;101057.56;4944050;28;20038;-74
2021/04/01 04:55:11;;;;;;;62.58;29.10;;;;;;;14.38;64.40;101049.09;4951838;28;20066;-74
2021/04/01 04:57:49;;;;;;;59.85;27.98;;;;;;;14.39;63.90;101051.41;4935151;29;20086;-74
2021/04/01 05:05:58;;;;;;;66.75;30.42;;;;;;;14.23;65.04;101037.25;4952046;28;20543;-74
2021/04/01 05:08:24;;;;;;;67.72;30.13;;;;;;;14.14;65.95;101044.09;4929833;29;20154;-74
2021/04/01 05:10:53;;;;;;;63.30;30.15;;;;;;;14.21;63.95;101041.47;4950066;29;20065;-73
2021/04/01 05:13:19;;;;;;;65.18;30.15;;;;;;;14.34;63.46;101049.00;4951098;29;20035;-73
2021/04/01 05:15:48;;;;;;;63.35;28.98;;;;;;;14.27;63.02;101046.25;4951503;28;20035;-74
2021/04/01 05:20:48;;;;;;;66.25;29.88;;;;;;;14.51;60.47;101065.84;4945017;29;20031;-74
2021/04/01 05:25:55;;;;;;;69.25;31.08;;;;;;;14.51;59.57;101082.91;4940556;28;20534;-73
2021/04/01 05:28:35;;;;;;;76.00;32.92;;;;;;;14.57;59.28;101084.13;4936330;28;20086;-73
2021/04/01 05:31:03;;;;;;;75.05;32.72;;;;;;;14.53;59.24;101088.75;4940770;29;20051;-73
2021/04/01 05:33:33;;;;;;;75.13;32.13;;;;;;;14.45;59.56;101077.03;4949098;29;20218;-74
2021/04/01 05:36:05;;;;;;;80.90;33.15;;;;;;;14.51;59.07;101082.13;4948477;28;20484;-74
2021/04/01 05:38:32;;;;;;;68.68;30.55;;;;;;;14.48;58.94;101091.00;4931474;29;20066;-73
2021/04/01 05:40:58;;;;;;;79.05;32.20;;;;;;;14.53;58.57;101085.25;4950261;29;20328;-73
2021/04/01 05:43:26;;;;;;;74.40;32.95;;;;;;;14.37;58.89;101074.59;4951162;29;20054;-73
2021/04/01 05:46:01;;;;;;;72.03;31.00;;;;;;;14.26;59.24;101076.38;4950623;28;20512;-73
2021/04/01 05:48:43;;;;;;;73.07;31.25;;;;;;;14.19;60.25;101063.53;4947961;29;20039;-73
2021/04/01 05:54:42;;;;;;;70.90;31.30;;;;;;;13.91;61.33;101068.59;4942168;28;20130;-73
2021/04/01 06:04:44;;;;;;;77.32;31.58;;;;;;;14.40;60.50;101077.34;4934895;28;20456;-72
2021/04/01 06:07:25;;;;;;;73.32;32.33;;;;;;;14.46;60.07;101075.88;4939454;29;20078;-72
2021/04/01 06:09:56;;;;;;;80.57;33.42;;;;;;;14.57;59.18;101064.38;4938025;29;20047;-73
2021/04/01 06:12:29;;;;;;;73.72;31.75;;;;;;;14.72;58.38;101088.56;4945754;29;20039;-73
2021/04/01 06:14:58;;;;;;;76.75;33.55;;;;;;;14.69;58.72;101080.38;4944393;28;20070;-72
2021/04/01 06:17:28;;;;;;;71.88;32.30;;;;;;;14.74;58.50;101082.75;4948806;28;20082;-72
2021/04/01 06:19:56;;;;;;;73.78;32.05;;;;;;;14.69;58.60;101083.09;4946476;28;20051;-72
2021/04/01 06:22:24;;;;;;;75.28;31.63;;;;;;;14.77;58.51;101079.31;4951676;28;20036;-72
2021/04/01 06:24:50;;;;;;;73.78;32.45;;;;;;;14.87;57.68;101078.63;4947955;28;20492;-73
2021/04/01 06:27:30;;;;;;;72.35;32.80;;;;;;;14.92;57.46;101075.59;4931235;29;20027;-73
2021/04/01 06:32:52;;;;;;;79.90;33.22;;;;;;;14.84;57.35;101085.59;4951106;29;20114;-72
2021/04/01 06:40:47;;;;;;;78.65;32.92;;;;;;;14.89;58.00;101082.53;4950260;29;20063;-72
2021/04/01 06:43:23;;;;;;;79.75;33.90;;;;;;;15.03;57.47;101085.38;4951631;29;20031;-72
2021/04/01 06:45:53;;;;;;;78.43;33.17;;;;;;;15.03;57.10;101079.97;4947793;28;20067;-73
2021/04/01 06:48:23;;;;;;;77.63;33.92;;;;;;;14.98;57.47;101087.66;4947047;28;20079;-73
2021/04/01 06:50:56;;;;;;;74.78;34.15;;;;;;;14.95;57.22;101096.53;4950457;28;20139;-72
2021/04/01 06:54:08;;;;;;;78.15;33.58;;;;;;;15.03;56.93;101098.16;4948216;29;20122;-73
2021/04/01 06:59:20;;;;;;;79.18;33.72;;;;;;;14.80;58.31;101094.81;4913759;29;20094;-73
2021/04/01 07:02:05;;;;;;;79.45;32.58;;;;;;;14.88;57.96;101116.22;4947975;29;20725;-72
2021/04/01 07:04:34;;;;;;;75.55;32.65;;;;;;;14.84;58.72;101103.78;4953336;28;20448;-72
2021/04/01 07:07:05;;;;;;;79.15;32.85;;;;;;;14.98;57.76;101107.41;4943190;28;20031;-72
2021/04/01 07:12:23;;;;;;;80.07;33.30;;;;;;;14.66;60.19;101103.59;4928045;29;20086;-72
2021/04/01 07:14:50;;;;;;;;;;;;;;;14.69;60.67;101099.38;4946615;29;20149;-72
2021/04/01 07:17:29;;;;;;;78.32;33.35;;;;;;;14.79;59.56;101082.44;4946148;29;19922;-73
2021/04/01 07:31:48;;;;;;;79.13;33.97;;;;;;;14.61;61.01;101095.81;4949176;28;20864;-71
2021/04/01 07:44:51;;;;;;;83.65;36.15;;;;;;;14.93;59.97;101106.97;4952490;28;20143;-73
2021/04/01 07:47:21;;;;;;;84.80;35.47;;;;;;;15.00;59.61;101104.34;4955890;28;20066;-73
2021/04/01 07:49:49;;;;;;;85.15;35.97;;;;;;;15.09;59.26;101110.22;4960221;28;20085;-73
2021/04/01 07:52:20;;;;;;;83.80;36.55;;;;;;;15.07;59.89;101105.19;4939322;28;20111;-73
2021/04/01 08:05:30;;;;;;;85.90;35.40;;;;;;;15.51;58.66;101121.47;4950170;28;20035;-74
2021/04/01 08:08:02;;;;;;;81.88;34.83;;;;;;;15.67;58.26;101119.28;4950381;28;20041;-73
2021/04/01 08:10:31;;;;;;;83.60;37.03;;;;;;;15.72;59.79;101124.34;4937042;28;20048;-74
2021/04/01 08:13:10;;;;;;;84.90;36.38;;;;;;;16.08;58.64;101125.34;4950594;29;20561;-74
2021/04/01 08:15:41;;;;;;;82.85;36.22;;;;;;;16.44;57.99;101135.22;4953140;28;20027;-74
2021/04/01 08:21:01;;;;;;;76.85;34.67;;;;;;;16.75;56.68;101137.31;4946068;28;20043;-75
2021/04/01 08:23:40;;;;;;;77.00;34.20;;;;;;;16.80;55.73;101134.22;4955592;28;20403;-73
2021/04/01 08:36:52;;;;;;;64.65;29.77;;;;;;;17.59;55.43;101147.59;4945720;28;20043;-73
2021/04/01 08:39:19;;;;;;;63.35;29.80;;;;;;;17.55;55.02;101154.97;4948304;28;20050;-73
2021/04/01 08:42:07;;;;;;;62.13;29.48;;;;;;;17.56;56.48;101145.63;4937702;29;20098;-73
2021/04/01 08:44:50;;;;;;;69.82;30.17;;;;;;;17.42;57.23;101159.19;4948613;28;20035;-73
2021/04/01 08:47:31;;;;;;;64.53;29.65;;;;;;;17.66;56.49;101163.91;4954820;28;20111;-73
2021/04/01 08:50:33;;;;;;;62.25;29.77;;;;;;;17.55;57.81;101168.59;4931670;29;20031;-74
2021/04/01 08:53:12;;;;;;;61.00;27.95;;;;;;;17.72;59.23;101178.72;4943852;28;20046;-74
2021/04/01 08:55:41;;;;;;;61.28;27.95;;;;;;;17.75;58.28;101171.72;4948950;28;20027;-75
2021/04/01 08:58:41;;;;;;;60.95;27.75;;;;;;;17.68;58.69;101174.41;4950762;28;20030;-74
2021/04/01 09:01:14;;;;;;;64.32;28.10;;;;;;;17.21;59.94;101175.50;4946546;28;20067;-75
2021/04/01 09:03:43;;;;;;;55.42;27.70;;;;;;;17.13;59.86;101176.66;4946411;28;20046;-74
2021/04/01 09:06:11;;;;;;;51.60;24.88;;;;;;;16.91;59.74;101185.94;4953120;28;20566;-73
2021/04/01 09:08:41;;;;;;;51.47;24.98;;;;;;;17.33;59.72;101194.22;4953025;28;20047;-74
2021/04/01 09:11:09;;;;;;;52.83;23.98;;;;;;;17.55;59.53;101197.78;4942319;28;20042;-73
2021/04/01 09:13:36;;;;;;;55.67;25.92;;;;;;;17.60;58.78;101200.88;4949762;28;20038;-74
2021/04/01 09:16:16;;;;;;;60.08;28.35;;;;;;;17.66;59.39;101204.00;4946190;28;20046;-75
2021/04/01 09:18:46;;;;;;;57.85;26.35;;;;;;;18.00;58.54;101214.09;4944004;28;20039;-75
2021/04/01 09:21:12;;;;;;;54.80;26.13;;;;;;;17.99;56.17;101219.94;4935594;29;20035;-74
2021/04/01 09:23:40;;;;;;;63.53;28.77;;;;;;;18.01;56.96;101212.94;4951325;28;20483;-74
2021/04/01 09:26:08;;;;;;;49.67;23.30;;;;;;;17.85;55.96;101228.13;4951227;28;20101;-74
2021/04/01 09:28:37;;;;;;;41.05;20.05;;;;;;;17.79;54.77;101244.09;4949044;28;20403;-74
2021/04/01 09:31:05;;;;;;;37.97;18.95;;;;;;;17.95;55.67;101230.88;4960305;28;20757;-74
2021/04/01 09:33:33;;;;;;;37.85;18.70;;;;;;;17.99;55.09;101222.69;4935930;28;20086;-74
2021/04/01 09:36:05;;;;;;;37.20;19.10;;;;;;;18.09;54.98;101221.91;4949780;28;20042;-73
2021/04/01 09:38:39;;;;;;;36.33;17.90;;;;;;;18.31;55.03;101217.19;4947600;28;20122;-74
2021/04/01 09:41:05;;;;;;;34.35;17.85;;;;;;;18.34;54.37;101221.84;4940056;28;20118;-75
2021/04/01 09:43:31;;;;;;;38.42;18.38;;;;;;;18.72;54.34;101226.44;4946985;28;20559;-74
2021/04/01 09:46:08;;;;;;;34.63;17.67;;;;;;;19.09;53.67;101234.84;4952561;28;20397;-74
2021/04/01 09:48:39;;;;;;;36.25;17.83;;;;;;;19.28;53.41;101234.34;4948936;28;20090;-75
2021/04/01 09:51:16;;;;;;;34.83;17.30;;;;;;;19.52;52.68;101233.47;4932714;28;20035;-74
2021/04/01 09:53:53;;;;;;;35.67;17.00;;;;;;;19.71;52.77;101238.41;4938665;28;20431;-75
2021/04/01 09:56:32;;;;;;;35.65;17.30;;;;;;;20.07;51.90;101235.38;4947538;28;20035;-74
2021/04/01 09:58:59;;;;;;;34.17;16.50;;;;;;;20.03;52.08;101229.94;4948675;28;20110;-76
2021/04/01 10:04:20;;;;;;;34.30;17.92;;;;;;;20.18;51.97;101246.97;4939525;28;20035;-75
2021/04/01 10:06:49;;;;;;;39.78;17.88;;;;;;;20.51;51.55;101263.50;4935535;28;20042;-74
2021/04/01 10:09:16;;;;;;;34.47;17.70;;;;;;;20.65;51.23;101249.63;4925143;28;20035;-72
2021/04/01 10:11:43;;;;;;;38.55;18.35;;;;;;;20.46;51.67;101250.25;4926794;28;20062;-74
2021/04/01 10:14:11;;;;;;;36.47;17.73;;;;;;;19.90;52.16;101245.28;4939641;28;20035;-74
2021/04/01 10:16:49;;;;;;;30.75;15.60;;;;;;;19.60;52.31;101259.56;4934230;28;20035;-74
2021/04/01 10:19:15;;;;;;;27.58;14.57;;;;;;;19.13;53.71;101257.47;4937511;28;20105;-74
2021/04/01 10:21:47;;;;;;;27.48;13.85;;;;;;;18.32;56.33;101259.66;4937676;28;20048;-74
2021/04/01 10:24:32;;;;;;;23.73;12.93;;;;;;;18.09;57.37;101272.91;4952188;28;20118;-73
2021/04/01 10:32:06;;;;;;;27.70;12.23;;;;;;;17.50;59.34;101290.78;4932513;28;20376;-74
2021/04/01 10:34:35;;;;;;;22.83;11.55;;;;;;;16.83;61.45;101293.19;4932148;28;20500;-73
2021/04/01 10:37:08;;;;;;;23.48;11.23;;;;;;;16.64;63.50;101290.75;4934270;28;20035;-72
2021/04/01 10:39:38;;;;;;;23.77;11.88;;;;;;;16.36;64.38;101293.25;4928806;28;20432;-74
2021/04/01 10:42:06;;;;;;;25.25;11.65;;;;;;;16.25;64.86;101301.34;4907806;28;20547;-73
2021/04/01 10:44:32;;;;;;;19.83;11.18;;;;;;;16.37;64.44;101314.66;4939621;28;20095;-73
2021/04/01 10:47:03;;;;;;;24.30;10.18;;;;;;;16.19;64.78;101313.72;4950041;28;20070;-74
2021/04/01 10:49:35;;;;;;;24.42;10.32;;;;;;;16.28;64.42;101325.84;4949894;28;20585;-74
2021/04/01 10:52:01;;;;;;;;;;;;;;;15.80;66.69;101313.38;4948675;28;20436;-74
2021/04/01 10:54:41;;;;;;;19.27;8.95;;;;;;;15.42;67.21;101315.69;4949607;28;19940;-74
2021/04/01 10:57:09;;;;;;;16.40;8.30;;;;;;;15.29;68.63;101317.84;4950933;28;20024;-73
2021/04/01 10:59:38;;;;;;;14.95;7.85;;;;;;;15.26;68.84;101334.84;4952621;28;20046;-73
2021/04/01 11:02:10;;;;;;;12.30;6.63;;;;;;;15.30;68.00;101335.69;4942814;28;20117;-74
2021/04/01 11:04:38;;;;;;;12.82;6.00;;;;;;;15.19;68.19;101332.06;4952211;28;20400;-74
2021/04/01 11:07:05;;;;;;;10.95;5.18;;;;;;;15.05;68.49;101340.00;4944824;28;20428;-74
2021/04/01 11:09:33;;;;;;;10.55;4.88;;;;;;;14.82;70.67;101344.72;4951088;28;20046;-74
2021/04/01 11:14:25;;;;;;;7.97;3.67;;;;;;;14.99;68.96;101355.81;4947568;28;20824;-73
2021/04/01 11:16:52;;;;;;;6.25;3.63;;;;;;;15.10;68.24;101355.94;4952665;28;20018;-73
2021/04/01 11:19:19;;;;;;;7.78;3.55;;;;;;;14.92;68.62;101358.44;4952316;29;20075;-74
2021/04/01 11:21:48;;;;;;;6.75;2.92;;;;;;;14.95;67.88;101356.91;4961034;28;20039;-74
2021/04/01 11:24:13;;;;;;;6.03;3.05;;;;;;;14.95;67.72;101365.84;4941270;28;20027;-73
2021/04/01 11:26:40;;;;;;;5.32;3.17;;;;;;;14.96;67.73;101358.50;4953419;28;20074;-74
2021/04/01 11:29:13;;;;;;;8.68;3.40;;;;;;;14.72;69.37;101353.47;4950564;28;20096;-74
2021/04/01 11:31:39;;;;;;;4.43;3.30;;;;;;;14.87;68.55;101366.09;4936767;28;20135;-73
2021/04/01 11:34:06;;;;;;;5.32;3.13;;;;;;;14.83;69.45;101365.25;4953808;28;20038;-73
2021/04/01 11:36:40;;;;;;;5.53;2.95;;;;;;;14.91;69.37;101361.50;4948566;28;20031;-73
2021/04/01 11:39:24;;;;;;;6.28;3.30;;;;;;;14.66;70.83;101363.88;4946199;28;20513;-72
2021/04/01 11:41:49;;;;;;;4.35;3.03;;;;;;;14.76;71.00;101371.38;4951925;28;20042;-73
2021/04/01 11:44:18;;;;;;;4.18;2.80;;;;;;;14.86;70.39;101369.97;4930725;28;20031;-74
2021/04/01 11:46:44;;;;;;;5.93;3.20;;;;;;;15.07;69.95;101375.69;4940139;28;20040;-73
2021/04/01 11:49:09;;;;;;;7.22;3.28;;;;;;;15.02;70.64;101376.03;4935565;28;20868;-73
2021/04/01 11:51:36;;;;;;;6.85;3.78;;;;;;;15.11;70.45;101381.94;4941218;28;20086;-74
2021/04/01 11:54:08;;;;;;;8.30;3.30;;;;;;;15.24;70.28;101380.56;4935475;28;20512;-73
2021/04/01 11:56:41;;;;;;;;;;;;;;;15.22;70.18;101369.28;4943967;28;20404;-73
2021/04/01 11:59:44;;;;;;;5.07;3.30;;;;;;;15.46;70.05;101370.78;4947829;28;19970;-74
2021/04/01 12:02:11;;;;;;;5.50;3.40;;;;;;;15.86;67.58;101362.72;4938097;28;20051;-72
2021/04/01 12:04:39;;;;;;;7.05;3.67;;;;;;;16.15;66.66;101370.78;4927816;29;20503;-73
2021/04/01 12:07:06;;;;;;;5.22;3.15;;;;;;;16.25;66.43;101369.31;4948161;28;20031;-73
2021/04/01 12:09:32;;;;;;;4.65;2.90;;;;;;;16.40;64.05;101370.19;4951176;28;20047;-73
2021/04/01 12:11:57;;;;;;;3.95;2.50;;;;;;;16.37;63.33;101371.75;4936193;28;20039;-73
2021/04/01 12:14:32;;;;;;;3.33;2.63;;;;;;;16.28;63.89;101382.13;4937910;28;20658;-76
2021/04/01 12:17:03;;;;;;;4.90;2.70;;;;;;;16.17;61.97;101379.34;4929220;29;20027;-73
2021/04/01 12:19:29;;;;;;;5.55;2.63;;;;;;;16.74;63.02;101377.09;4937202;28;20035;-74
2021/04/01 12:21:55;;;;;;;5.82;2.88;;;;;;;17.04;59.78;101381.19;4943582;28;20050;-74
2021/04/01 12:24:21;;;;;;;3.30;2.13;;;;;;;16.93;59.80;101383.06;4943863;28;20050;-74
2021/04/01 12:26:50;;;;;;;4.53;2.80;;;;;;;16.44;59.96;101376.44;4952761;28;20035;-73
2021/04/01 12:29:17;;;;;;;4.63;3.10;;;;;;;17.05;58.12;101379.25;4927523;29;20038;-74
2021/04/01 12:31:52;;;;;;;5.28;2.80;;;;;;;17.46;56.48;101383.31;4942400;28;20051;-73
2021/04/01 12:37:15;;;;;;;2.42;2.15;;;;;;;17.32;54.52;101385.22;5071811;28;20416;-73
2021/04/01 12:39:40;;;;;;;3.13;1.92;;;;;;;17.08;54.24;101378.47;5068063;28;20044;-73
2021/04/01 12:42:06;;;;;;;3.35;2.28;;;;;;;16.82;55.32;101393.06;5070602;28;20035;-73
2021/04/01 12:44:45;;;;;;;4.32;1.65;;;;;;;16.23;56.18;101391.44;5068780;28;20398;-73
2021/04/01 12:47:21;;;;;;;2.58;1.30;;;;;;;15.59;nan;101402.75;5071224;28;20060;-72
2021/04/01 12:49:48;;;;;;;4.90;1.50;;;;;;;15.66;60.39;101397.41;5073549;28;20032;-73
2021/04/01 12:52:14;;;;;;;1.48;1.30;;;;;;;15.54;60.57;101405.81;5076440;28;20064;-74
2021/04/01 12:54:47;;;;;;;2.45;1.40;;;;;;;15.46;60.66;101419.66;5066248;28;20037;-73
2021/04/01 12:57:18;;;;;;;1.80;1.15;;;;;;;15.30;61.76;101409.75;5074723;28;20042;-73
2021/04/01 12:59:48;;;;;;;1.35;1.20;;;;;;;15.38;61.62;101416.03;5074804;28;20488;-73
2021/04/01 13:02:22;;;;;;;1.90;1.10;;;;;;;15.29;61.84;101426.41;5074877;28;20131;-74
2021/04/01 13:04:56;;;;;;;2.72;1.30;;;;;;;15.33;61.60;101432.63;5079595;28;20032;-73
2021/04/01 13:07:26;;;;;;;2.03;1.30;;;;;;;15.30;60.33;101433.38;5083757;28;20040;-75